createdAt,value
2018-12-15T00:00:35.585Z,3.79
2018-12-15T00:03:04.060Z,3.75
2018-12-15T00:05:32.484Z,3.76
2018-12-15T00:08:00.867Z,3.81
2018-12-15T00:10:29.348Z,3.89
2018-12-15T00:12:57.680Z,3.94
2018-12-15T00:15:26.044Z,3.85
2018-12-15T00:17:54.407Z,3.91
2018-12-15T00:20:22.744Z,3.83
2018-12-15T00:22:51.108Z,3.75
2018-12-15T00:25:19.580Z,3.75
2018-12-15T00:27:47.930Z,3.93
2018-12-15T00:30:16.281Z,4.05
2018-12-15T00:32:44.906Z,3.96
2018-12-15T00:35:13.334Z,4.09
2018-12-15T00:37:41.622Z,3.93
2018-12-15T00:40:10.057Z,3.94
2018-12-15T00:42:38.396Z,3.88
2018-12-15T00:45:06.833Z,3.85
2018-12-15T00:47:35.189Z,3.86
2018-12-15T00:50:03.541Z,3.75
2018-12-15T00:52:31.912Z,3.83
2018-12-15T00:55:00.491Z,3.63
2018-12-15T00:57:28.786Z,3.49
2018-12-15T00:59:57.132Z,3.62
2018-12-15T01:02:25.448Z,3.68
2018-12-15T01:04:53.731Z,3.73
2018-12-15T01:07:22.039Z,3.76
2018-12-15T01:09:50.438Z,3.52
2018-12-15T01:12:18.728Z,3.52
2018-12-15T01:14:47.002Z,3.42
2018-12-15T01:17:20.419Z,3.33
2018-12-15T01:19:45.820Z,3.31
2018-12-15T01:22:14.176Z,3.30
2018-12-15T01:24:42.541Z,3.36
2018-12-15T01:27:10.850Z,3.59
2018-12-15T01:29:39.188Z,3.49
2018-12-15T01:32:07.540Z,3.15
2018-12-15T01:34:35.907Z,3.28
2018-12-15T01:37:04.228Z,3.42
2018-12-15T01:39:32.672Z,3.36
2018-12-15T01:42:00.989Z,3.47
2018-12-15T01:44:29.307Z,3.64
2018-12-15T01:46:57.749Z,3.71
2018-12-15T01:49:26.144Z,3.72
2018-12-15T01:51:54.470Z,3.70
2018-12-15T01:54:23.088Z,3.58
2018-12-15T01:56:51.411Z,3.39
2018-12-15T01:59:19.839Z,3.20
2018-12-15T02:01:48.317Z,3.52
2018-12-15T02:04:16.620Z,3.59
2018-12-15T02:06:44.941Z,3.58
2018-12-15T02:09:13.312Z,3.64
2018-12-15T02:11:41.594Z,3.62
2018-12-15T02:14:09.917Z,3.66
2018-12-15T02:16:38.254Z,3.67
2018-12-15T02:19:06.602Z,3.49
2018-12-15T02:21:34.888Z,3.62
2018-12-15T02:24:03.468Z,3.46
2018-12-15T02:26:31.784Z,3.43
2018-12-15T02:29:00.141Z,3.45
2018-12-15T02:31:28.479Z,3.43
2018-12-15T02:33:56.864Z,3.56
2018-12-15T02:36:25.212Z,3.50
2018-12-15T02:38:53.568Z,3.52
2018-12-15T02:41:21.921Z,3.66
2018-12-15T02:43:50.244Z,3.81
2018-12-15T02:46:18.623Z,3.79
2018-12-15T02:48:46.941Z,3.68
2018-12-15T02:51:15.255Z,3.59
2018-12-15T02:53:43.589Z,3.62
2018-12-15T02:56:11.938Z,3.65
2018-12-15T02:58:40.266Z,3.54
2018-12-15T03:01:08.595Z,3.45
2018-12-15T03:03:37.077Z,3.49
2018-12-15T03:06:05.460Z,3.48
2018-12-15T03:08:34.027Z,3.24
2018-12-15T03:11:02.370Z,3.14
2018-12-15T03:13:30.715Z,3.38
2018-12-15T03:15:59.051Z,3.41
2018-12-15T03:18:27.355Z,3.36
2018-12-15T03:21:00.961Z,3.11
2018-12-15T03:23:29.333Z,3.36
2018-12-15T03:25:57.632Z,3.46
2018-12-15T03:28:26.037Z,3.48
2018-12-15T03:30:54.331Z,3.50
2018-12-15T03:33:22.738Z,3.42
2018-12-15T03:35:51.104Z,3.58
2018-12-15T03:38:19.417Z,3.51
2018-12-15T03:40:47.707Z,3.50
2018-12-15T03:43:16.063Z,3.65
2018-12-15T03:45:44.411Z,3.52
2018-12-15T03:48:12.754Z,3.26
2018-12-15T03:50:41.509Z,3.37
2018-12-15T03:53:09.805Z,3.50
2018-12-15T03:55:38.090Z,3.45
2018-12-15T03:58:06.424Z,3.76
2018-12-15T04:00:34.778Z,3.79
2018-12-15T04:03:03.166Z,3.80
2018-12-15T04:05:31.540Z,3.72
2018-12-15T04:07:59.842Z,3.89
2018-12-15T04:10:28.139Z,3.77
2018-12-15T04:12:56.847Z,3.69
2018-12-15T04:15:25.240Z,3.21
2018-12-15T04:17:53.552Z,3.16
2018-12-15T04:20:21.913Z,3.30
2018-12-15T04:22:50.260Z,3.48
2018-12-15T04:25:18.544Z,3.59
2018-12-15T04:27:46.905Z,3.78
2018-12-15T04:30:15.232Z,3.33
2018-12-15T04:32:45.352Z,3.43
2018-12-15T04:35:13.956Z,3.28
2018-12-15T04:37:42.257Z,3.39
2018-12-15T04:40:10.891Z,3.54
2018-12-15T04:42:39.248Z,3.40
2018-12-15T04:45:07.660Z,3.67
2018-12-15T04:47:35.963Z,3.64
2018-12-15T04:50:04.600Z,3.35
2018-12-15T04:52:32.917Z,3.37
2018-12-15T04:55:01.233Z,3.54
2018-12-15T04:57:29.777Z,3.26
2018-12-15T04:59:58.059Z,3.10
2018-12-15T05:02:26.392Z,3.35
2018-12-15T05:04:54.857Z,3.56
2018-12-15T05:07:23.194Z,3.69
2018-12-15T05:09:51.464Z,3.65
2018-12-15T05:12:19.794Z,3.78
2018-12-15T05:14:48.353Z,3.90
2018-12-15T05:17:16.654Z,3.66
2018-12-15T05:19:45.124Z,3.26
2018-12-15T05:22:13.944Z,3.30
2018-12-15T05:24:42.919Z,3.41
2018-12-15T05:27:11.716Z,3.11
2018-12-15T05:29:40.022Z,3.22
2018-12-15T05:32:08.321Z,3.23
2018-12-15T05:34:36.656Z,3.19
2018-12-15T05:37:04.945Z,3.35
2018-12-15T05:39:33.286Z,3.26
2018-12-15T05:42:01.792Z,3.44
2018-12-15T05:44:30.136Z,3.68
2018-12-15T05:46:58.447Z,3.66
2018-12-15T05:49:26.787Z,3.73
2018-12-15T05:51:55.110Z,3.71
2018-12-15T05:54:23.396Z,3.82
2018-12-15T05:56:51.838Z,3.79
2018-12-15T05:59:20.182Z,3.83
2018-12-15T06:01:48.496Z,3.89
2018-12-15T06:04:16.886Z,3.93
2018-12-15T06:06:45.207Z,3.81
2018-12-15T06:09:13.510Z,3.77
2018-12-15T06:11:41.835Z,3.91
2018-12-15T06:14:10.119Z,3.77
2018-12-15T06:16:38.564Z,3.68
2018-12-15T06:19:06.952Z,3.67
2018-12-15T06:21:35.236Z,3.71
2018-12-15T06:24:03.520Z,3.71
2018-12-15T06:26:31.922Z,3.16
2018-12-15T06:29:00.222Z,3.32
2018-12-15T06:31:28.536Z,3.21
2018-12-15T06:33:56.891Z,3.48
2018-12-15T06:36:25.176Z,3.40
2018-12-15T06:38:57.489Z,3.48
2018-12-15T06:41:26.742Z,3.36
2018-12-15T06:43:55.037Z,3.40
2018-12-15T06:46:23.384Z,3.16
2018-12-15T06:48:51.769Z,3.00
2018-12-15T06:51:20.146Z,2.98
2018-12-15T06:53:48.451Z,2.99
2018-12-15T06:56:17.045Z,3.27
2018-12-15T06:58:45.385Z,3.32
2018-12-15T07:01:13.701Z,3.35
2018-12-15T07:03:42.036Z,3.11
2018-12-15T07:06:10.417Z,2.75
2018-12-15T07:08:38.745Z,2.94
2018-12-15T07:11:07.509Z,3.07
2018-12-15T07:13:35.784Z,3.17
2018-12-15T07:16:04.124Z,2.99
2018-12-15T07:18:32.436Z,3.15
2018-12-15T07:21:00.754Z,3.35
2018-12-15T07:23:29.110Z,3.36
2018-12-15T07:25:57.450Z,3.33
2018-12-15T07:28:25.729Z,3.11
2018-12-15T07:30:54.054Z,2.91
2018-12-15T07:33:22.753Z,2.85
2018-12-15T07:35:51.090Z,3.12
2018-12-15T07:38:19.505Z,3.13
2018-12-15T07:40:47.957Z,2.98
2018-12-15T07:43:17.123Z,3.11
2018-12-15T07:45:45.427Z,2.88
2018-12-15T07:48:13.761Z,2.96
2018-12-15T07:50:42.038Z,3.09
2018-12-15T07:53:10.314Z,2.96
2018-12-15T07:55:38.736Z,3.03
2018-12-15T07:58:07.056Z,2.67
2018-12-15T08:00:35.391Z,2.51
2018-12-15T08:03:03.748Z,2.54
2018-12-15T08:05:32.060Z,2.53
2018-12-15T08:08:00.366Z,2.60
2018-12-15T08:10:30.620Z,2.72
2018-12-15T08:13:00.826Z,2.84
2018-12-15T08:15:29.160Z,2.69
2018-12-15T08:17:57.801Z,2.77
2018-12-15T08:20:26.152Z,2.52
2018-12-15T08:22:54.510Z,2.71
2018-12-15T08:25:22.935Z,2.74
2018-12-15T08:27:51.307Z,2.72
2018-12-15T08:30:19.646Z,2.71
2018-12-15T08:32:47.994Z,2.69
2018-12-15T08:35:16.324Z,2.66
2018-12-15T08:37:44.696Z,2.55
2018-12-15T08:40:13.746Z,2.62
2018-12-15T08:42:42.077Z,2.45
2018-12-15T08:45:10.413Z,2.59
2018-12-15T08:47:38.744Z,2.97
2018-12-15T08:50:07.121Z,3.04
2018-12-15T08:52:35.510Z,3.17
2018-12-15T08:55:04.877Z,2.92
2018-12-15T08:57:33.205Z,2.91
2018-12-15T09:00:01.529Z,2.52
2018-12-15T09:02:30.139Z,2.58
2018-12-15T09:04:58.460Z,2.71
2018-12-15T09:09:59.432Z,2.93
2018-12-15T09:12:27.788Z,2.81
2018-12-15T09:14:56.092Z,2.88
2018-12-15T09:17:24.450Z,2.73
2018-12-15T09:19:52.796Z,2.56
2018-12-15T09:22:21.135Z,2.76
2018-12-15T09:24:49.522Z,2.84
2018-12-15T09:27:17.859Z,2.87
2018-12-15T09:29:46.165Z,2.75
2018-12-15T09:32:14.489Z,2.95
2018-12-15T09:34:42.797Z,3.21
2018-12-15T09:37:11.141Z,3.10
2018-12-15T09:39:39.474Z,3.23
2018-12-15T09:42:07.800Z,3.07
2018-12-15T09:44:36.094Z,2.84
2018-12-15T09:47:04.616Z,3.04
2018-12-15T09:49:32.930Z,2.77
2018-12-15T09:52:01.283Z,2.94
2018-12-15T09:54:29.656Z,3.05
2018-12-15T09:56:57.955Z,3.25
2018-12-15T09:59:26.258Z,3.05
2018-12-15T10:01:54.705Z,3.21
2018-12-15T10:04:23.022Z,3.05
2018-12-15T10:06:51.329Z,2.90
2018-12-15T10:09:19.848Z,3.10
2018-12-15T10:11:48.281Z,3.49
2018-12-15T10:14:16.598Z,3.55
2018-12-15T10:16:44.953Z,3.72
2018-12-15T10:19:13.266Z,3.76
2018-12-15T10:21:41.613Z,3.34
2018-12-15T10:24:09.920Z,3.63
2018-12-15T10:26:38.256Z,3.51
2018-12-15T10:29:08.521Z,3.51
2018-12-15T10:31:42.849Z,3.41
2018-12-15T10:34:11.168Z,3.33
2018-12-15T10:36:39.481Z,2.89
2018-12-15T10:39:08.668Z,3.12
2018-12-15T10:41:36.972Z,3.32
2018-12-15T10:44:05.295Z,3.43
2018-12-15T10:46:33.627Z,3.52
2018-12-15T10:49:01.968Z,3.13
2018-12-15T10:51:30.280Z,3.15
2018-12-15T10:53:58.789Z,3.12
2018-12-15T10:56:27.113Z,2.82
2018-12-15T10:58:55.388Z,3.12
2018-12-15T11:01:23.781Z,3.18
2018-12-15T11:03:52.141Z,3.36
2018-12-15T11:06:20.468Z,3.25
2018-12-15T11:08:48.837Z,2.89
2018-12-15T11:11:17.183Z,3.24
2018-12-15T11:13:45.475Z,3.36
2018-12-15T11:16:14.005Z,3.47
2018-12-15T11:18:42.301Z,3.53
2018-12-15T11:21:10.580Z,3.45
2018-12-15T11:23:38.913Z,3.32
2018-12-15T11:26:07.281Z,3.46
2018-12-15T11:28:35.574Z,3.61
2018-12-15T11:31:03.943Z,3.18
2018-12-15T11:33:32.267Z,3.24
2018-12-15T11:36:00.588Z,3.54
2018-12-15T11:38:29.046Z,3.42
2018-12-15T11:40:57.370Z,3.35
2018-12-15T11:43:25.713Z,3.28
2018-12-15T11:45:54.074Z,3.56
2018-12-15T11:48:22.345Z,3.16
2018-12-15T11:50:50.643Z,3.19
2018-12-15T11:53:18.959Z,2.54
2018-12-15T11:55:47.238Z,2.94
2018-12-15T11:58:15.563Z,2.93
2018-12-15T12:00:44.754Z,2.91
2018-12-15T12:03:13.106Z,2.90
2018-12-15T12:05:41.398Z,3.02
2018-12-15T12:08:09.741Z,2.98
2018-12-15T12:10:38.113Z,3.29
2018-12-15T12:13:06.494Z,3.13
2018-12-15T12:15:34.817Z,3.44
2018-12-15T12:18:03.150Z,3.67
2018-12-15T12:20:31.445Z,3.62
2018-12-15T12:23:00.191Z,3.50
2018-12-15T12:25:28.547Z,3.40
2018-12-15T12:27:56.913Z,3.27
2018-12-15T12:30:25.231Z,3.36
2018-12-15T12:32:53.541Z,3.01
2018-12-15T12:35:21.886Z,2.88
2018-12-15T12:37:50.213Z,2.94
2018-12-15T12:40:18.539Z,2.97
2018-12-15T12:42:46.860Z,3.06
2018-12-15T12:45:15.356Z,3.48
2018-12-15T12:47:43.632Z,3.52
2018-12-15T12:50:11.971Z,3.05
2018-12-15T12:52:40.338Z,3.00
2018-12-15T12:55:09.982Z,3.01
2018-12-15T12:57:38.272Z,2.79
2018-12-15T13:00:06.768Z,3.06
2018-12-15T13:02:35.083Z,3.15
2018-12-15T13:05:03.881Z,3.17
2018-12-15T13:07:32.340Z,3.02
2018-12-15T13:10:00.904Z,2.96
2018-12-15T13:12:29.245Z,3.09
2018-12-15T13:14:57.601Z,3.00
2018-12-15T13:17:26.049Z,3.01
2018-12-15T13:19:54.392Z,3.05
2018-12-15T13:22:22.769Z,2.97
2018-12-15T13:24:51.186Z,3.01
2018-12-15T13:27:19.483Z,3.35
2018-12-15T13:29:48.014Z,3.38
2018-12-15T13:32:16.483Z,3.13
2018-12-15T13:34:44.824Z,3.22
2018-12-15T13:37:13.225Z,2.98
2018-12-15T13:39:41.601Z,3.07
2018-12-15T13:42:09.925Z,3.24
2018-12-15T13:44:38.367Z,2.95
2018-12-15T13:47:06.719Z,2.86
2018-12-15T13:49:35.094Z,2.83
2018-12-15T13:52:03.604Z,2.90
2018-12-15T13:54:31.919Z,2.96
2018-12-15T13:57:00.232Z,2.95
2018-12-15T13:59:28.554Z,3.09
2018-12-15T14:01:56.862Z,3.23
2018-12-15T14:04:25.156Z,3.23
2018-12-15T14:06:53.478Z,3.29
2018-12-15T14:09:21.908Z,3.41
2018-12-15T14:11:50.184Z,3.13
2018-12-15T14:14:18.853Z,3.20
2018-12-15T14:16:47.231Z,3.12
2018-12-15T14:19:15.546Z,3.46
2018-12-15T14:21:43.884Z,3.40
2018-12-15T14:24:12.232Z,3.33
2018-12-15T14:26:40.541Z,2.99
2018-12-15T14:29:08.909Z,3.00
2018-12-15T14:31:37.272Z,2.78
2018-12-15T14:34:05.586Z,2.77
2018-12-15T14:36:33.971Z,3.06
2018-12-15T14:39:02.269Z,2.87
2018-12-15T14:41:30.566Z,3.10
2018-12-15T14:43:58.928Z,3.24
2018-12-15T14:46:27.287Z,3.39
2018-12-15T14:48:55.621Z,3.28
2018-12-15T14:51:23.930Z,3.29
2018-12-15T14:53:52.246Z,3.48
2018-12-15T14:56:20.537Z,3.31
2018-12-15T14:58:49.038Z,3.06
2018-12-15T15:01:17.314Z,3.08
2018-12-15T15:03:45.639Z,3.13
2018-12-15T15:06:14.012Z,3.17
2018-12-15T15:08:42.318Z,3.17
2018-12-15T15:11:10.675Z,3.03
2018-12-15T15:13:39.107Z,2.82
2018-12-15T15:16:07.447Z,2.89
2018-12-15T15:18:35.919Z,3.11
2018-12-15T15:21:04.387Z,2.78
2018-12-15T15:23:32.694Z,2.94
2018-12-15T15:26:01.028Z,2.62
2018-12-15T15:28:29.586Z,2.65
2018-12-15T15:30:57.884Z,2.79
2018-12-15T15:33:26.215Z,3.06
2018-12-15T15:35:54.541Z,2.72
2018-12-15T15:38:22.891Z,2.59
2018-12-15T15:40:51.206Z,2.46
2018-12-15T15:43:19.745Z,2.61
2018-12-15T15:45:48.070Z,2.85
2018-12-15T15:48:16.360Z,2.84
2018-12-15T15:50:44.746Z,2.59
2018-12-15T15:53:13.066Z,2.43
2018-12-15T15:55:41.465Z,2.44
2018-12-15T15:58:09.848Z,2.42
2018-12-15T16:00:38.198Z,2.54
2018-12-15T16:03:06.567Z,2.53
2018-12-15T16:05:35.118Z,2.65
2018-12-15T16:08:03.498Z,3.06
2018-12-15T16:10:31.908Z,3.01
2018-12-15T16:13:00.242Z,2.97
2018-12-15T16:15:28.567Z,2.93
2018-12-15T16:17:56.865Z,2.80
2018-12-15T16:20:26.124Z,2.99
2018-12-15T16:22:54.544Z,2.96
2018-12-15T16:25:22.902Z,2.73
2018-12-15T16:27:51.431Z,2.84
2018-12-15T16:30:19.750Z,2.64
2018-12-15T16:32:48.096Z,2.34
2018-12-15T16:35:16.456Z,2.72
2018-12-15T16:37:44.760Z,2.79
2018-12-15T16:40:13.123Z,2.61
2018-12-15T16:42:41.483Z,2.40
2018-12-15T16:45:09.916Z,2.40
2018-12-15T16:47:38.241Z,2.61
2018-12-15T16:50:10.376Z,2.41
2018-12-15T16:52:39.188Z,2.74
2018-12-15T16:55:07.808Z,2.68
2018-12-15T16:57:36.227Z,2.72
2018-12-15T17:00:08.178Z,2.44
2018-12-15T17:02:36.477Z,2.58
2018-12-15T17:05:05.930Z,2.39
2018-12-15T17:07:34.295Z,2.38
2018-12-15T17:10:02.631Z,2.47
2018-12-15T17:12:31.950Z,2.49
2018-12-15T17:15:00.272Z,2.59
2018-12-15T17:17:28.589Z,2.61
2018-12-15T17:19:56.945Z,2.71
2018-12-15T17:22:25.221Z,2.77
2018-12-15T17:24:53.532Z,2.47
2018-12-15T17:27:27.569Z,2.33
2018-12-15T17:29:55.892Z,2.46
2018-12-15T17:32:24.253Z,2.22
2018-12-15T17:34:52.887Z,2.21
2018-12-15T17:37:21.256Z,2.07
2018-12-15T17:39:49.584Z,2.15
2018-12-15T17:42:17.947Z,2.15
2018-12-15T17:44:46.291Z,2.14
2018-12-15T17:47:14.610Z,2.09
2018-12-15T17:49:42.986Z,2.40
2018-12-15T17:52:11.357Z,2.57
2018-12-15T17:54:39.717Z,2.82
2018-12-15T17:57:08.322Z,2.35
2018-12-15T17:59:36.619Z,2.19
2018-12-15T18:02:04.997Z,2.47
2018-12-15T18:04:33.321Z,2.34
2018-12-15T18:07:01.641Z,2.14
2018-12-15T18:09:29.961Z,2.11
2018-12-15T18:11:58.275Z,2.43
2018-12-15T18:14:26.597Z,2.44
2018-12-15T18:16:54.946Z,2.34
2018-12-15T18:19:24.040Z,2.13
2018-12-15T18:21:52.356Z,2.10
2018-12-15T18:24:20.670Z,2.34
2018-12-15T18:26:49.008Z,2.67
2018-12-15T18:29:17.353Z,2.94
2018-12-15T18:31:45.680Z,3.15
2018-12-15T18:34:14.003Z,3.20
2018-12-15T18:36:46.463Z,2.98
2018-12-15T18:39:15.028Z,2.82
2018-12-15T18:41:43.478Z,2.59
2018-12-15T18:44:11.813Z,2.62
2018-12-15T18:46:40.169Z,2.71
2018-12-15T18:49:08.739Z,2.42
2018-12-15T18:51:37.052Z,2.39
2018-12-15T18:54:05.443Z,2.50
2018-12-15T18:56:34.036Z,2.31
2018-12-15T18:59:02.597Z,2.38
2018-12-15T19:01:31.150Z,2.19
2018-12-15T19:03:59.547Z,2.22
2018-12-15T19:06:27.887Z,2.13
2018-12-15T19:08:56.235Z,2.10
2018-12-15T19:11:24.683Z,2.17
2018-12-15T19:13:52.999Z,2.59
2018-12-15T19:16:21.350Z,2.55
2018-12-15T19:18:49.648Z,2.60
2018-12-15T19:21:22.934Z,2.67
2018-12-15T19:23:48.553Z,2.41
2018-12-15T19:26:16.954Z,2.21
2018-12-15T19:28:45.278Z,2.16
2018-12-15T19:31:13.619Z,2.29
2018-12-15T19:33:41.924Z,2.32
2018-12-15T19:36:10.237Z,2.30
2018-12-15T19:38:38.596Z,2.56
2018-12-15T19:41:07.035Z,2.37
2018-12-15T19:43:35.331Z,2.75
2018-12-15T19:46:03.824Z,2.77
2018-12-15T19:48:32.202Z,2.77
2018-12-15T19:53:40.567Z,2.47
2018-12-15T19:56:08.898Z,2.71
2018-12-15T19:58:37.211Z,2.58
2018-12-15T20:01:05.977Z,2.66
2018-12-15T20:03:34.306Z,2.77
2018-12-15T20:06:02.629Z,2.53
2018-12-15T20:08:31.068Z,2.48
2018-12-15T20:10:59.414Z,2.40
2018-12-15T20:13:27.769Z,2.55
2018-12-15T20:15:56.772Z,2.38
2018-12-15T20:18:25.108Z,2.39
2018-12-15T20:20:53.424Z,2.52
2018-12-15T20:23:21.950Z,2.32
2018-12-15T20:25:50.289Z,2.29
2018-12-15T20:28:18.671Z,2.45
2018-12-15T20:30:47.022Z,2.37
2018-12-15T20:33:15.335Z,2.34
2018-12-15T20:35:43.679Z,2.39
2018-12-15T20:38:12.022Z,2.41
2018-12-15T20:40:40.401Z,2.53
2018-12-15T20:43:08.731Z,2.53
2018-12-15T20:45:37.415Z,2.49
2018-12-15T20:48:05.779Z,2.38
2018-12-15T20:50:34.236Z,2.51
2018-12-15T20:53:02.588Z,2.66
2018-12-15T20:55:31.058Z,2.42
2018-12-15T20:57:59.378Z,2.51
2018-12-15T21:00:27.767Z,2.28
2018-12-15T21:02:56.089Z,2.38
2018-12-15T21:05:24.426Z,2.51
2018-12-15T21:07:52.882Z,2.51
2018-12-15T21:10:21.232Z,2.47
2018-12-15T21:12:49.581Z,2.45
2018-12-15T21:15:19.991Z,2.41
2018-12-15T21:17:48.429Z,2.52
2018-12-15T21:20:17.152Z,2.41
2018-12-15T21:22:45.815Z,2.21
2018-12-15T21:25:14.199Z,2.28
2018-12-15T21:27:42.543Z,2.06
2018-12-15T21:30:11.161Z,2.18
2018-12-15T21:32:39.669Z,2.18
2018-12-15T21:35:08.108Z,2.16
2018-12-15T21:37:36.588Z,2.07
2018-12-15T21:40:06.511Z,2.24
2018-12-15T21:42:34.845Z,1.99
2018-12-15T21:45:03.272Z,1.63
2018-12-15T21:47:31.583Z,1.81
2018-12-15T21:49:59.952Z,1.77
2018-12-15T21:52:28.480Z,1.72
2018-12-15T21:54:56.836Z,1.59
2018-12-15T21:57:25.155Z,1.46
2018-12-15T21:59:53.481Z,1.41
2018-12-15T22:02:21.873Z,1.63
2018-12-15T22:04:50.207Z,1.69
2018-12-15T22:07:18.668Z,1.71
2018-12-15T22:09:46.984Z,1.64
2018-12-15T22:12:15.337Z,1.73
2018-12-15T22:14:43.777Z,1.70
2018-12-15T22:17:12.166Z,1.92
2018-12-15T22:19:40.500Z,1.73
2018-12-15T22:22:08.875Z,1.18
2018-12-15T22:24:37.168Z,1.12
2018-12-15T22:27:05.505Z,1.48
2018-12-15T22:29:33.889Z,1.45
2018-12-15T22:32:02.205Z,1.29
2018-12-15T22:34:30.515Z,1.22
2018-12-15T22:36:58.888Z,1.03
2018-12-15T22:39:29.020Z,0.83
2018-12-15T22:41:57.382Z,0.83
2018-12-15T22:44:25.725Z,0.96
2018-12-15T22:46:54.063Z,0.95
2018-12-15T22:49:22.403Z,0.99
2018-12-15T22:51:50.745Z,1.00
2018-12-15T22:54:19.060Z,0.90
2018-12-15T22:56:47.358Z,0.88
2018-12-15T22:59:15.754Z,0.74
2018-12-15T23:01:45.945Z,1.08
2018-12-15T23:04:14.878Z,1.16
2018-12-15T23:06:43.414Z,1.34
2018-12-15T23:09:11.805Z,1.12
2018-12-15T23:11:40.153Z,1.41
2018-12-15T23:14:08.506Z,1.49
2018-12-15T23:16:36.775Z,1.63
2018-12-15T23:19:05.148Z,1.32
2018-12-15T23:21:33.589Z,1.28
2018-12-15T23:24:02.073Z,1.18
2018-12-15T23:26:30.501Z,1.11
2018-12-15T23:28:58.927Z,1.19
2018-12-15T23:31:27.208Z,1.07
2018-12-15T23:33:55.493Z,1.08
2018-12-15T23:36:23.823Z,0.99
2018-12-15T23:38:52.175Z,0.95
2018-12-15T23:41:20.579Z,0.85
2018-12-15T23:43:49.335Z,0.92
2018-12-15T23:46:17.723Z,0.93
2018-12-15T23:48:46.063Z,0.98
2018-12-15T23:51:14.458Z,0.86
2018-12-15T23:53:42.798Z,0.87
2018-12-15T23:56:11.426Z,0.79
2018-12-15T23:58:39.836Z,0.76
